Time,TemperatureF,DewpointF,PressureIn,WindDirection,WindDirectionDegrees,WindSpeedMPH,WindSpeedGustMPH,Humidity,HourlyPrecipIn,Conditions,Clouds,dailyrainin,SoftwareType,DateUTC
2015-03-03 00:00:00,60.1,57.2,30.22,West,268,0.0,0.0,90,0.00,,,0.00,VWS V12.08,2015-03-03 06:00:00,
2015-03-03 00:05:00,60.1,57.2,30.20,West,268,0.0,0.0,90,0.00,,,0.00,VWS V12.08,2015-03-03 06:05:00,
2015-03-03 00:10:00,60.1,57.2,30.20,West,268,0.0,0.0,90,0.00,,,0.00,VWS V12.08,2015-03-03 06:10:00,
2015-03-03 00:15:00,60.0,57.1,30.20,West,268,0.0,0.0,90,0.00,,,0.00,VWS V12.08,2015-03-03 06:15:00,
2015-03-03 00:20:00,60.0,57.1,30.19,West,268,0.0,0.0,90,0.00,,,0.00,VWS V12.08,2015-03-03 06:20:00,
2015-03-03 00:25:00,59.5,56.6,30.19,West,268,0.0,0.0,90,0.00,,,0.00,VWS V12.08,2015-03-03 06:25:00,
2015-03-03 00:30:00,59.4,56.5,30.19,West,268,0.0,0.0,90,0.00,,,0.00,VWS V12.08,2015-03-03 06:30:00,
2015-03-03 00:35:00,59.4,56.5,30.19,West,268,0.0,0.0,90,0.00,,,0.00,VWS V12.08,2015-03-03 06:35:00,
2015-03-03 00:40:00,59.4,56.5,30.19,West,268,0.0,0.0,90,0.00,,,0.00,VWS V12.08,2015-03-03 06:40:00,
2015-03-03 00:45:00,59.4,56.5,30.19,West,268,0.0,0.0,90,0.00,,,0.00,VWS V12.08,2015-03-03 06:45:00,
2015-03-03 00:50:00,59.4,56.5,30.19,West,268,0.0,0.0,90,0.00,,,0.00,VWS V12.08,2015-03-03 06:50:00,
2015-03-03 00:55:00,59.4,56.5,30.19,West,268,0.0,0.0,90,0.00,,,0.00,VWS V12.08,2015-03-03 06:55:00,
2015-03-03 01:00:00,59.5,56.6,30.19,West,268,0.0,0.0,90,0.00,,,0.00,VWS V12.08,2015-03-03 07:00:00,
2015-03-03 01:05:00,59.5,56.6,30.18,West,268,0.0,0.0,90,0.00,,,0.00,VWS V12.08,2015-03-03 07:05:00,
2015-03-03 01:10:00,59.5,56.6,30.18,West,268,0.0,0.0,90,0.00,,,0.00,VWS V12.08,2015-03-03 07:10:00,
2015-03-03 01:15:00,59.5,56.6,30.18,West,268,0.0,0.0,90,0.00,,,0.00,VWS V12.08,2015-03-03 07:15:00,
2015-03-03 01:20:00,59.5,56.6,30.18,West,268,0.0,0.0,90,0.00,,,0.00,VWS V12.08,2015-03-03 07:20:00,
2015-03-03 01:25:00,59.4,56.5,30.18,West,268,0.0,0.0,90,0.00,,,0.00,VWS V12.08,2015-03-03 07:25:00,
2015-03-03 01:30:00,59.4,56.5,30.18,West,268,0.0,0.0,90,0.00,,,0.00,VWS V12.08,2015-03-03 07:30:00,
2015-03-03 01:35:00,59.1,56.2,30.18,West,268,0.0,0.0,90,0.00,,,0.00,VWS V12.08,2015-03-03 07:35:00,
2015-03-03 01:40:00,59.1,56.2,30.18,West,268,0.0,0.0,90,0.00,,,0.00,VWS V12.08,2015-03-03 07:40:00,
2015-03-03 01:45:00,58.9,56.0,30.18,West,268,0.0,0.0,90,0.00,,,0.00,VWS V12.08,2015-03-03 07:45:00,
2015-03-03 01:50:00,58.9,56.0,30.18,West,268,0.0,0.0,90,0.00,,,0.00,VWS V12.08,2015-03-03 07:50:00,
2015-03-03 01:55:00,58.8,55.9,30.18,West,268,0.0,0.0,90,0.00,,,0.00,VWS V12.08,2015-03-03 07:55:00,
2015-03-03 02:00:00,58.8,55.9,30.18,West,268,0.0,0.0,90,0.00,,,0.00,VWS V12.08,2015-03-03 08:00:00,
2015-03-03 02:05:00,58.6,55.7,30.18,West,268,0.0,0.0,90,0.00,,,0.00,VWS V12.08,2015-03-03 08:05:00,
2015-03-03 02:10:00,58.4,55.5,30.18,West,264,0.0,0.0,90,0.00,,,0.00,VWS V12.08,2015-03-03 08:10:00,
2015-03-03 02:15:00,58.3,55.4,30.18,West,264,0.0,0.0,90,0.00,,,0.00,VWS V12.08,2015-03-03 08:15:00,
2015-03-03 02:20:00,58.3,55.4,30.17,West,264,0.0,0.0,90,0.00,,,0.00,VWS V12.08,2015-03-03 08:20:00,
2015-03-03 02:25:00,58.3,55.4,30.17,West,264,0.0,0.0,90,0.00,,,0.00,VWS V12.08,2015-03-03 08:25:00,
2015-03-03 02:30:00,58.1,55.2,30.17,West,264,0.0,0.0,90,0.00,,,0.00,VWS V12.08,2015-03-03 08:30:00,
2015-03-03 02:35:00,58.1,55.2,30.16,West,264,0.0,0.0,90,0.00,,,0.00,VWS V12.08,2015-03-03 08:35:00,
2015-03-03 02:40:00,58.1,55.2,30.16,West,264,0.0,0.0,90,0.00,,,0.00,VWS V12.08,2015-03-03 08:40:00,
2015-03-03 02:45:00,58.1,55.2,30.16,West,264,0.0,0.0,90,0.00,,,0.00,VWS V12.08,2015-03-03 08:45:00,
2015-03-03 02:50:00,58.1,55.2,30.16,West,271,0.0,0.0,90,0.00,,,0.00,VWS V12.08,2015-03-03 08:50:00,
2015-03-03 02:55:00,58.3,55.4,30.16,West,260,0.0,0.0,90,0.00,,,0.00,VWS V12.08,2015-03-03 08:55:00,
2015-03-03 03:00:00,58.3,55.4,30.16,West,260,0.0,0.0,90,0.00,,,0.00,VWS V12.08,2015-03-03 09:00:00,
2015-03-03 03:05:00,58.3,55.4,30.16,West,260,0.0,0.0,90,0.00,,,0.00,VWS V12.08,2015-03-03 09:05:00,
2015-03-03 03:10:00,58.3,55.4,30.16,West,260,0.0,0.0,90,0.00,,,0.00,VWS V12.08,2015-03-03 09:10:00,
2015-03-03 03:15:00,58.0,55.1,30.16,West,260,0.0,0.0,90,0.00,,,0.00,VWS V12.08,2015-03-03 09:15:00,
2015-03-03 03:20:00,58.0,55.1,30.16,West,260,0.0,0.0,90,0.00,,,0.00,VWS V12.08,2015-03-03 09:20:00,
2015-03-03 03:25:00,58.0,55.1,30.16,West,260,0.0,0.0,90,0.00,,,0.00,VWS V12.08,2015-03-03 09:25:00,
2015-03-03 03:30:00,58.0,55.1,30.16,West,260,0.0,0.0,90,0.00,,,0.00,VWS V12.08,2015-03-03 09:30:00,
2015-03-03 03:35:00,58.0,55.1,30.16,West,260,0.0,0.0,90,0.00,,,0.00,VWS V12.08,2015-03-03 09:35:00,
2015-03-03 03:40:00,58.0,55.1,30.16,West,260,0.0,0.0,90,0.00,,,0.00,VWS V12.08,2015-03-03 09:40:00,
2015-03-03 03:45:00,58.0,55.1,30.16,West,260,0.0,0.0,90,0.00,,,0.00,VWS V12.08,2015-03-03 09:45:00,
2015-03-03 03:50:00,58.0,55.1,30.15,South,185,0.0,0.0,90,0.00,,,0.00,VWS V12.08,2015-03-03 09:50:00,
2015-03-03 03:55:00,58.1,55.2,30.15,South,185,0.0,0.0,90,0.00,,,0.00,VWS V12.08,2015-03-03 09:55:00,
2015-03-03 04:00:00,58.0,55.1,30.15,South,184,0.0,0.0,90,0.00,,,0.00,VWS V12.08,2015-03-03 10:00:00,
2015-03-03 04:05:00,58.0,55.1,30.16,South,184,0.0,0.0,90,0.00,,,0.00,VWS V12.08,2015-03-03 10:05:00,
2015-03-03 04:10:00,58.2,55.3,30.16,South,184,2.0,2.0,90,0.00,,,0.00,VWS V12.08,2015-03-03 10:10:00,
2015-03-03 04:15:00,58.2,55.3,30.16,South,184,0.0,1.0,90,0.00,,,0.00,VWS V12.08,2015-03-03 10:15:00,
2015-03-03 04:20:00,58.3,55.4,30.16,South,184,0.0,1.0,90,0.00,,,0.00,VWS V12.08,2015-03-03 10:20:00,
2015-03-03 04:25:00,58.3,55.4,30.16,South,184,0.0,0.0,90,0.00,,,0.00,VWS V12.08,2015-03-03 10:25:00,
2015-03-03 04:30:00,58.1,55.2,30.16,South,182,0.0,0.0,90,0.00,,,0.00,VWS V12.08,2015-03-03 10:30:00,
2015-03-03 04:35:00,58.2,55.3,30.16,South,182,0.0,2.0,90,0.00,,,0.00,VWS V12.08,2015-03-03 10:35:00,
2015-03-03 04:40:00,58.2,55.3,30.16,South,182,0.0,2.0,90,0.00,,,0.00,VWS V12.08,2015-03-03 10:40:00,
2015-03-03 04:45:00,58.2,55.3,30.16,South,182,0.0,0.0,90,0.00,,,0.00,VWS V12.08,2015-03-03 10:45:00,
2015-03-03 04:50:00,58.1,55.2,30.16,South,182,0.0,0.0,90,0.00,,,0.00,VWS V12.08,2015-03-03 10:50:00,
2015-03-03 04:55:00,58.1,55.2,30.16,South,182,0.0,0.0,90,0.00,,,0.00,VWS V12.08,2015-03-03 10:55:00,
2015-03-03 05:00:00,58.1,55.2,30.16,South,182,0.0,0.0,90,0.00,,,0.00,VWS V12.08,2015-03-03 11:00:00,
2015-03-03 05:05:00,58.1,55.2,30.16,South,182,0.0,0.0,90,0.00,,,0.00,VWS V12.08,2015-03-03 11:05:00,
2015-03-03 05:10:00,58.1,55.2,30.16,South,182,0.0,0.0,90,0.00,,,0.00,VWS V12.08,2015-03-03 11:10:00,
2015-03-03 05:15:00,58.1,55.2,30.16,South,182,0.0,0.0,90,0.00,,,0.00,VWS V12.08,2015-03-03 11:15:00,
2015-03-03 05:20:00,58.2,55.3,30.16,South,182,0.0,0.0,90,0.00,,,0.00,VWS V12.08,2015-03-03 11:20:00,
2015-03-03 05:25:00,58.2,55.3,30.16,South,182,0.0,0.0,90,0.00,,,0.00,VWS V12.08,2015-03-03 11:25:00,
2015-03-03 05:30:00,58.2,55.3,30.16,South,182,0.0,0.0,90,0.00,,,0.00,VWS V12.08,2015-03-03 11:30:00,
2015-03-03 05:35:00,58.2,55.3,30.17,South,182,0.0,0.0,90,0.00,,,0.00,VWS V12.08,2015-03-03 11:35:00,
2015-03-03 05:40:00,58.2,55.3,30.17,South,182,2.0,2.0,90,0.00,,,0.00,VWS V12.08,2015-03-03 11:40:00,
2015-03-03 05:45:00,57.6,54.7,30.17,South,182,0.0,0.0,90,0.00,,,0.00,VWS V12.08,2015-03-03 11:45:00,
2015-03-03 05:50:00,57.3,54.4,30.17,South,182,0.0,0.0,90,0.00,,,0.00,VWS V12.08,2015-03-03 11:50:00,
2015-03-03 05:55:00,57.2,54.3,30.17,South,182,0.0,0.0,90,0.00,,,0.00,VWS V12.08,2015-03-03 11:55:00,
2015-03-03 06:00:00,57.2,54.3,30.17,South,182,0.0,0.0,90,0.00,,,0.00,VWS V12.08,2015-03-03 12:00:00,
2015-03-03 06:05:00,57.2,54.3,30.17,South,182,0.0,0.0,90,0.00,,,0.00,VWS V12.08,2015-03-03 12:05:00,
2015-03-03 06:10:00,57.2,54.3,30.17,South,182,0.0,0.0,90,0.00,,,0.00,VWS V12.08,2015-03-03 12:10:00,
2015-03-03 06:15:00,57.2,54.3,30.17,South,182,0.0,0.0,90,0.00,,,0.00,VWS V12.08,2015-03-03 12:15:00,
2015-03-03 06:20:00,57.3,54.4,30.18,South,182,0.0,0.0,90,0.00,,,0.00,VWS V12.08,2015-03-03 12:20:00,
2015-03-03 06:25:00,57.3,54.4,30.18,South,182,0.0,0.0,90,0.00,,,0.00,VWS V12.08,2015-03-03 12:25:00,
2015-03-03 06:30:00,57.3,54.4,30.18,South,182,0.0,0.0,90,0.00,,,0.00,VWS V12.08,2015-03-03 12:30:00,
2015-03-03 06:35:00,57.5,54.6,30.18,South,182,0.0,0.0,90,0.00,,,0.00,VWS V12.08,2015-03-03 12:35:00,
2015-03-03 06:40:00,57.5,54.6,30.18,South,182,0.0,0.0,90,0.00,,,0.00,VWS V12.08,2015-03-03 12:40:00,
2015-03-03 06:45:00,57.6,54.7,30.18,South,182,0.0,0.0,90,0.00,,,0.00,VWS V12.08,2015-03-03 12:45:00,
2015-03-03 06:50:00,57.5,54.6,30.18,South,182,0.0,0.0,90,0.00,,,0.00,VWS V12.08,2015-03-03 12:50:00,
2015-03-03 06:55:00,57.5,54.6,30.18,South,182,0.0,0.0,90,0.00,,,0.00,VWS V12.08,2015-03-03 12:55:00,
2015-03-03 07:00:00,57.5,54.6,30.18,South,182,0.0,0.0,90,0.00,,,0.00,VWS V12.08,2015-03-03 13:00:00,
2015-03-03 07:05:00,57.6,54.7,30.18,South,182,0.0,0.0,90,0.00,,,0.00,VWS V12.08,2015-03-03 13:05:00,
2015-03-03 07:10:00,57.8,54.9,30.18,South,182,0.0,0.0,90,0.00,,,0.00,VWS V12.08,2015-03-03 13:10:00,
2015-03-03 07:15:00,58.2,55.3,30.18,South,182,0.0,0.0,90,0.00,,,0.00,VWS V12.08,2015-03-03 13:15:00,
2015-03-03 07:20:00,58.5,55.6,30.18,South,182,0.0,0.0,90,0.00,,,0.00,VWS V12.08,2015-03-03 13:20:00,
2015-03-03 07:25:00,58.7,55.8,30.18,South,182,0.0,0.0,90,0.00,,,0.00,VWS V12.08,2015-03-03 13:25:00,
2015-03-03 07:30:00,59.0,56.1,30.18,South,182,0.0,0.0,90,0.00,,,0.00,VWS V12.08,2015-03-03 13:30:00,
2015-03-03 07:35:00,59.1,56.2,30.18,South,182,0.0,0.0,90,0.00,,,0.00,VWS V12.08,2015-03-03 13:35:00,
2015-03-03 07:40:00,59.0,56.1,30.18,South,182,0.0,0.0,90,0.00,,,0.00,VWS V12.08,2015-03-03 13:40:00,
2015-03-03 07:45:00,59.0,56.1,30.19,South,182,0.0,0.0,90,0.00,,,0.00,VWS V12.08,2015-03-03 13:45:00,
2015-03-03 07:50:00,59.0,56.1,30.19,South,182,0.0,0.0,90,0.00,,,0.00,VWS V12.08,2015-03-03 13:50:00,
2015-03-03 07:55:00,59.0,56.1,30.19,South,175,0.0,2.0,90,0.00,,,0.00,VWS V12.08,2015-03-03 13:55:00,
2015-03-03 08:00:00,59.0,56.1,30.19,South,175,0.0,2.0,90,0.00,,,0.00,VWS V12.08,2015-03-03 14:00:00,
2015-03-03 08:05:00,59.0,56.1,30.19,South,175,0.0,1.0,90,0.00,,,0.00,VWS V12.08,2015-03-03 14:05:00,
2015-03-03 08:10:00,59.0,56.1,30.19,South,175,0.0,3.0,90,0.00,,,0.00,VWS V12.08,2015-03-03 14:10:00,
2015-03-03 08:15:00,59.0,56.1,30.19,South,175,0.0,0.0,90,0.00,,,0.00,VWS V12.08,2015-03-03 14:15:00,
2015-03-03 08:20:00,59.3,56.4,30.18,South,175,0.0,0.0,90,0.00,,,0.00,VWS V12.08,2015-03-03 14:20:00,
2015-03-03 08:25:00,60.1,57.2,30.18,South,175,0.0,0.0,90,0.00,,,0.00,VWS V12.08,2015-03-03 14:25:00,
2015-03-03 08:30:00,60.7,57.8,30.18,SSE,161,0.0,1.0,90,0.00,,,0.00,VWS V12.08,2015-03-03 14:30:00,
2015-03-03 08:35:00,60.8,57.8,30.18,SSE,161,0.0,0.0,90,0.00,,,0.00,VWS V12.08,2015-03-03 14:35:00,
2015-03-03 08:40:00,61.0,58.0,30.18,SSE,161,0.0,0.0,90,0.00,,,0.00,VWS V12.08,2015-03-03 14:40:00,
2015-03-03 08:45:00,61.2,58.2,30.18,SSE,161,0.0,0.0,90,0.00,,,0.00,VWS V12.08,2015-03-03 14:45:00,
2015-03-03 08:50:00,61.3,58.3,30.19,SSE,164,0.0,2.0,90,0.00,,,0.00,VWS V12.08,2015-03-03 14:50:00,
2015-03-03 08:55:00,61.1,58.2,30.19,SSE,162,0.0,0.0,90,0.00,,,0.00,VWS V12.08,2015-03-03 14:55:00,
2015-03-03 09:00:00,60.9,58.0,30.19,SSE,162,0.0,0.0,90,0.00,,,0.00,VWS V12.08,2015-03-03 15:00:00,
2015-03-03 09:05:00,60.7,57.8,30.19,SSE,162,0.0,0.0,90,0.00,,,0.00,VWS V12.08,2015-03-03 15:05:00,
2015-03-03 09:10:00,60.8,57.8,30.19,SSE,164,0.0,0.0,90,0.00,,,0.00,VWS V12.08,2015-03-03 15:10:00,
2015-03-03 09:15:00,60.8,57.8,30.19,SSE,164,0.0,0.0,90,0.00,,,0.00,VWS V12.08,2015-03-03 15:15:00,
2015-03-03 09:20:00,60.8,57.8,30.20,SSE,164,0.0,0.0,90,0.00,,,0.00,VWS V12.08,2015-03-03 15:20:00,
2015-03-03 09:25:00,61.0,58.0,30.20,SSE,164,0.0,0.0,90,0.00,,,0.00,VWS V12.08,2015-03-03 15:25:00,
2015-03-03 09:30:00,61.0,58.0,30.20,SSE,167,0.0,0.0,90,0.00,,,0.00,VWS V12.08,2015-03-03 15:30:00,
2015-03-03 09:35:00,61.1,58.2,30.20,SSE,167,0.0,0.0,90,0.00,,,0.00,VWS V12.08,2015-03-03 15:35:00,
2015-03-03 09:40:00,61.1,58.2,30.20,SSE,167,0.0,0.0,90,0.00,,,0.00,VWS V12.08,2015-03-03 15:40:00,
2015-03-03 09:45:00,61.0,58.0,30.20,South,172,0.0,2.0,90,0.00,,,0.00,VWS V12.08,2015-03-03 15:45:00,
2015-03-03 09:50:00,61.2,58.2,30.20,South,172,1.0,5.0,90,0.00,,,0.00,VWS V12.08,2015-03-03 15:50:00,
2015-03-03 09:55:00,61.0,58.0,30.20,South,172,0.0,5.0,90,0.00,,,0.00,VWS V12.08,2015-03-03 15:55:00,
2015-03-03 10:00:00,61.2,58.2,30.20,South,172,0.0,5.0,90,0.00,,,0.00,VWS V12.08,2015-03-03 16:00:00,
2015-03-03 10:05:00,60.9,58.0,30.21,SSE,168,3.0,3.0,90,0.00,,,0.00,VWS V12.08,2015-03-03 16:05:00,
2015-03-03 10:10:00,60.5,57.6,30.21,SSE,168,0.0,5.0,90,0.00,,,0.00,VWS V12.08,2015-03-03 16:10:00,
2015-03-03 10:15:00,60.7,57.8,30.21,SSE,168,0.0,0.0,90,0.00,,,0.00,VWS V12.08,2015-03-03 16:15:00,
2015-03-03 10:20:00,60.7,57.8,30.21,SSE,167,0.0,6.0,90,0.00,,,0.00,VWS V12.08,2015-03-03 16:20:00,
2015-03-03 10:25:00,60.7,57.8,30.21,SSE,162,4.0,7.0,90,0.00,,,0.00,VWS V12.08,2015-03-03 16:25:00,
2015-03-03 10:30:00,60.7,57.8,30.21,SSE,160,1.0,7.0,90,0.00,,,0.00,VWS V12.08,2015-03-03 16:30:00,
2015-03-03 10:35:00,60.4,57.5,30.21,SSE,160,4.0,5.0,90,0.00,,,0.00,VWS V12.08,2015-03-03 16:35:00,
2015-03-03 10:40:00,60.2,57.3,30.21,SSE,160,0.0,7.0,90,0.00,,,0.00,VWS V12.08,2015-03-03 16:40:00,
2015-03-03 10:45:00,60.4,57.5,30.20,SSE,162,0.0,3.0,90,0.00,,,0.00,VWS V12.08,2015-03-03 16:45:00,
2015-03-03 10:50:00,60.4,57.5,30.20,SSE,162,2.0,3.0,90,0.00,,,0.00,VWS V12.08,2015-03-03 16:50:00,
2015-03-03 10:55:00,60.9,58.0,30.20,SW,236,0.0,0.0,90,0.00,,,0.00,VWS V12.08,2015-03-03 16:55:00,
2015-03-03 11:00:00,60.8,57.8,30.20,SSW,195,2.0,4.0,90,0.00,,,0.00,VWS V12.08,2015-03-03 17:00:00,
2015-03-03 11:05:00,61.0,58.0,30.20,South,169,1.0,4.0,90,0.00,,,0.00,VWS V12.08,2015-03-03 17:05:00,
2015-03-03 11:10:00,61.3,58.3,30.20,South,169,0.0,4.0,90,0.00,,,0.00,VWS V12.08,2015-03-03 17:10:00,
2015-03-03 11:15:00,61.3,58.3,30.20,South,169,1.0,1.0,90,0.00,,,0.00,VWS V12.08,2015-03-03 17:15:00,
2015-03-03 11:20:00,61.8,58.8,30.20,South,169,1.0,2.0,90,0.00,,,0.00,VWS V12.08,2015-03-03 17:20:00,
2015-03-03 11:25:00,62.2,59.2,30.20,South,169,0.0,3.0,90,0.00,,,0.00,VWS V12.08,2015-03-03 17:25:00,
2015-03-03 11:30:00,62.6,59.6,30.19,South,169,0.0,3.0,90,0.00,,,0.00,VWS V12.08,2015-03-03 17:30:00,
2015-03-03 11:35:00,62.9,59.9,30.19,South,169,1.0,5.0,90,0.00,,,0.00,VWS V12.08,2015-03-03 17:35:00,
2015-03-03 11:40:00,63.1,60.1,30.19,South,182,4.0,5.0,90,0.00,,,0.00,VWS V12.08,2015-03-03 17:40:00,
2015-03-03 11:45:00,63.0,60.0,30.19,South,186,2.0,6.0,90,0.00,,,0.00,VWS V12.08,2015-03-03 17:45:00,
2015-03-03 11:50:00,63.1,60.1,30.19,South,174,2.0,6.0,90,0.00,,,0.00,VWS V12.08,2015-03-03 17:50:00,
2015-03-03 11:55:00,63.2,60.2,30.19,South,174,0.0,5.0,90,0.00,,,0.00,VWS V12.08,2015-03-03 17:55:00,
2015-03-03 12:00:00,63.2,60.2,30.18,South,174,0.0,5.0,90,0.00,,,0.00,VWS V12.08,2015-03-03 18:00:00,
2015-03-03 12:05:00,63.5,60.5,30.18,South,172,1.0,3.0,90,0.00,,,0.00,VWS V12.08,2015-03-03 18:05:00,
2015-03-03 12:10:00,63.5,60.5,30.18,South,184,2.0,6.0,90,0.00,,,0.00,VWS V12.08,2015-03-03 18:10:00,
2015-03-03 12:15:00,63.6,60.6,30.17,South,189,4.0,6.0,90,0.00,,,0.00,VWS V12.08,2015-03-03 18:15:00,
2015-03-03 12:20:00,63.7,60.7,30.17,South,171,1.0,6.0,90,0.00,,,0.00,VWS V12.08,2015-03-03 18:20:00,
2015-03-03 12:25:00,63.8,60.8,30.17,South,169,2.0,6.0,90,0.00,,,0.00,VWS V12.08,2015-03-03 18:25:00,
2015-03-03 12:30:00,64.0,61.0,30.17,SSE,161,2.0,6.0,90,0.00,,,0.00,VWS V12.08,2015-03-03 18:30:00,
2015-03-03 12:35:00,64.1,61.1,30.17,South,172,5.0,6.0,90,0.00,,,0.00,VWS V12.08,2015-03-03 18:35:00,
2015-03-03 12:40:00,64.1,61.1,30.17,South,176,3.0,6.0,90,0.00,,,0.00,VWS V12.08,2015-03-03 18:40:00,
2015-03-03 12:45:00,64.1,61.1,30.16,SSE,167,3.0,3.0,90,0.00,,,0.00,VWS V12.08,2015-03-03 18:45:00,
2015-03-03 12:50:00,64.3,61.3,30.16,South,171,3.0,5.0,90,0.00,,,0.00,VWS V12.08,2015-03-03 18:50:00,
2015-03-03 12:55:00,64.4,61.4,30.16,SSE,168,2.0,6.0,90,0.00,,,0.00,VWS V12.08,2015-03-03 18:55:00,
2015-03-03 13:00:00,64.4,61.4,30.16,South,171,3.0,6.0,90,0.00,,,0.00,VWS V12.08,2015-03-03 19:00:00,
2015-03-03 13:05:00,64.3,61.3,30.16,SSW,193,1.0,6.0,90,0.00,,,0.00,VWS V12.08,2015-03-03 19:05:00,
2015-03-03 13:10:00,64.3,61.3,30.16,South,184,4.0,6.0,90,0.00,,,0.00,VWS V12.08,2015-03-03 19:10:00,
2015-03-03 13:15:00,64.3,61.3,30.15,South,191,6.0,6.0,90,0.00,,,0.00,VWS V12.08,2015-03-03 19:15:00,
2015-03-03 13:20:00,64.3,61.3,30.15,South,179,4.0,7.0,90,0.00,,,0.00,VWS V12.08,2015-03-03 19:20:00,
2015-03-03 13:25:00,64.3,61.3,30.15,SSE,167,2.0,5.0,90,0.00,,,0.00,VWS V12.08,2015-03-03 19:25:00,
2015-03-03 13:30:00,64.4,61.4,30.14,SSE,164,4.0,6.0,90,0.00,,,0.00,VWS V12.08,2015-03-03 19:30:00,
2015-03-03 13:35:00,64.4,61.4,30.14,South,172,4.0,5.0,90,0.00,,,0.00,VWS V12.08,2015-03-03 19:35:00,
2015-03-03 13:40:00,64.7,61.7,30.14,South,175,0.0,5.0,90,0.00,,,0.00,VWS V12.08,2015-03-03 19:40:00,
2015-03-03 13:45:00,64.9,61.9,30.14,South,179,3.0,5.0,90,0.00,,,0.00,VWS V12.08,2015-03-03 19:45:00,
2015-03-03 13:50:00,65.2,62.2,30.14,SSE,168,2.0,5.0,90,0.00,,,0.00,VWS V12.08,2015-03-03 19:50:00,
2015-03-03 13:55:00,65.7,62.7,30.14,South,181,3.0,3.0,90,0.00,,,0.00,VWS V12.08,2015-03-03 19:55:00,
2015-03-03 14:00:00,65.9,62.9,30.13,South,179,3.0,3.0,90,0.00,,,0.00,VWS V12.08,2015-03-03 20:00:00,